createdAt,value
2023-03-29T00:01:42.383Z,42.50
2023-03-29T00:04:10.282Z,42.24
2023-03-29T00:06:37.836Z,41.39
2023-03-29T00:09:06.929Z,41.17
2023-03-29T00:11:33.808Z,41.18
2023-03-29T00:14:01.708Z,41.32
2023-03-29T00:16:28.624Z,41.41
2023-03-29T00:18:55.547Z,40.58
2023-03-29T00:21:22.402Z,40.57
2023-03-29T00:23:50.694Z,41.82
2023-03-29T00:26:17.313Z,41.53
2023-03-29T00:28:43.912Z,41.13
2023-03-29T00:31:12.450Z,41.74
2023-03-29T00:33:39.561Z,40.78
2023-03-29T00:36:07.343Z,40.94
2023-03-29T00:38:35.876Z,40.97
2023-03-29T00:41:05.115Z,40.42
2023-03-29T00:43:32.308Z,41.03
2023-03-29T00:45:59.322Z,41.51
2023-03-29T00:48:29.077Z,40.98
2023-03-29T00:50:55.949Z,40.07
2023-03-29T00:53:29.468Z,39.66
2023-03-29T00:55:56.060Z,40.61
2023-03-29T00:58:24.950Z,40.49
2023-03-29T01:00:58.073Z,39.87
2023-03-29T01:03:28.744Z,40.14
2023-03-29T01:06:01.898Z,40.21
2023-03-29T01:08:34.764Z,40.34
2023-03-29T01:11:04.962Z,40.40
2023-03-29T01:13:41.431Z,40.79
2023-03-29T01:16:11.371Z,40.58
2023-03-29T01:18:39.769Z,40.57
2023-03-29T01:21:20.419Z,40.34
2023-03-29T01:24:06.798Z,40.29
2023-03-29T01:26:57.086Z,40.98
2023-03-29T01:29:26.631Z,40.89
2023-03-29T01:31:58.069Z,40.32
2023-03-29T01:34:38.389Z,40.98
2023-03-29T01:37:17.188Z,40.51
2023-03-29T01:39:43.985Z,40.47
2023-03-29T01:42:27.300Z,40.38
2023-03-29T01:45:16.184Z,40.45
2023-03-29T01:47:48.328Z,39.72
2023-03-29T01:50:24.149Z,39.77
2023-03-29T01:52:54.862Z,39.88
2023-03-29T01:55:43.237Z,39.01
2023-03-29T01:58:11.842Z,39.22
2023-03-29T02:00:40.338Z,39.95
2023-03-29T02:03:08.981Z,40.11
2023-03-29T02:05:37.816Z,39.28
2023-03-29T02:08:05.723Z,39.13
2023-03-29T02:10:33.882Z,38.83
2023-03-29T02:13:01.005Z,38.46
2023-03-29T02:15:28.175Z,38.90
2023-03-29T02:17:56.934Z,39.46
2023-03-29T02:20:23.811Z,39.78
2023-03-29T02:22:57.076Z,38.83
2023-03-29T02:25:24.677Z,38.93
2023-03-29T02:27:52.141Z,39.12
2023-03-29T02:30:22.199Z,38.77
2023-03-29T02:32:56.764Z,38.97
2023-03-29T02:35:40.997Z,39.17
2023-03-29T02:38:09.104Z,39.36
2023-03-29T02:40:37.713Z,39.78
2023-03-29T02:43:05.638Z,39.01
2023-03-29T02:45:33.089Z,38.56
2023-03-29T02:48:02.328Z,38.95
2023-03-29T02:50:34.094Z,38.52
2023-03-29T02:53:04.698Z,38.91
2023-03-29T02:55:34.903Z,38.99
2023-03-29T02:58:08.087Z,38.50
2023-03-29T03:00:38.310Z,39.02
2023-03-29T03:03:06.519Z,38.20
2023-03-29T03:05:33.753Z,37.95
2023-03-29T03:08:00.516Z,39.66
2023-03-29T03:10:28.437Z,39.29
2023-03-29T03:12:57.308Z,39.34
2023-03-29T03:15:24.423Z,40.76
2023-03-29T03:17:51.164Z,40.67
2023-03-29T03:20:17.992Z,41.38
2023-03-29T03:22:48.877Z,40.58
2023-03-29T03:25:16.821Z,40.57
2023-03-29T03:27:43.831Z,40.25
2023-03-29T03:30:11.109Z,39.61
2023-03-29T03:33:06.366Z,40.45
2023-03-29T03:35:57.147Z,41.17
2023-03-29T03:38:25.446Z,40.32
2023-03-29T03:40:57.317Z,40.02
2023-03-29T03:43:25.695Z,39.37
2023-03-29T03:45:52.341Z,40.25
2023-03-29T03:48:23.226Z,40.01
2023-03-29T03:50:58.250Z,39.72
2023-03-29T03:53:29.941Z,39.44
2023-03-29T03:56:22.776Z,39.40
2023-03-29T03:59:07.471Z,38.93
2023-03-29T04:01:52.870Z,38.47
2023-03-29T04:04:23.350Z,38.47
2023-03-29T04:07:13.207Z,39.31
2023-03-29T04:10:18.230Z,38.90
2023-03-29T04:12:51.834Z,38.55
2023-03-29T04:15:20.327Z,38.45
2023-03-29T04:18:00.042Z,38.25
2023-03-29T04:20:33.329Z,37.53
2023-03-29T04:23:01.173Z,37.67
2023-03-29T04:25:28.950Z,38.05
2023-03-29T04:27:58.196Z,37.80
2023-03-29T04:30:51.435Z,37.97
2023-03-29T04:33:40.977Z,37.19
2023-03-29T04:36:09.415Z,37.86
2023-03-29T04:38:36.184Z,38.10
2023-03-29T04:41:06.503Z,38.41
2023-03-29T04:43:47.718Z,37.54
2023-03-29T04:46:22.096Z,38.49
2023-03-29T04:49:07.269Z,38.33
2023-03-29T04:51:37.823Z,41.17
2023-03-29T04:54:04.949Z,38.79
2023-03-29T04:56:41.696Z,38.39
2023-03-29T04:59:33.305Z,38.41
2023-03-29T05:02:04.881Z,37.74
2023-03-29T05:04:32.994Z,37.83
2023-03-29T05:07:08.762Z,37.49
2023-03-29T05:09:35.668Z,37.93
2023-03-29T05:12:04.938Z,38.07
2023-03-29T05:14:45.793Z,37.57
2023-03-29T05:17:12.820Z,38.30
2023-03-29T05:19:39.839Z,39.31
2023-03-29T05:22:07.478Z,38.17
2023-03-29T05:24:35.419Z,36.62
2023-03-29T05:27:09.086Z,35.84
2023-03-29T05:29:37.563Z,35.51
2023-03-29T05:32:24.205Z,35.47
2023-03-29T05:34:51.572Z,36.22
2023-03-29T05:37:18.777Z,36.10
2023-03-29T05:39:55.280Z,36.46
2023-03-29T05:42:38.020Z,35.81
2023-03-29T05:45:08.411Z,35.83
2023-03-29T05:47:35.341Z,36.21
2023-03-29T05:50:02.247Z,36.27
2023-03-29T05:52:29.017Z,36.34
2023-03-29T05:54:56.780Z,36.82
2023-03-29T05:57:23.501Z,36.48
2023-03-29T05:59:50.226Z,35.90
2023-03-29T06:02:17.336Z,35.75
2023-03-29T06:04:49.625Z,35.40
2023-03-29T06:07:16.451Z,34.55
2023-03-29T06:09:50.795Z,34.11
2023-03-29T06:12:20.165Z,34.19
2023-03-29T06:14:58.328Z,34.41
2023-03-29T06:17:33.789Z,34.49
2023-03-29T06:20:01.749Z,33.64
2023-03-29T06:22:31.313Z,34.12
2023-03-29T06:24:58.477Z,33.58
2023-03-29T06:27:29.764Z,32.28
2023-03-29T06:29:57.461Z,33.11
2023-03-29T06:32:24.139Z,32.78
2023-03-29T06:34:57.143Z,32.33
2023-03-29T06:37:32.617Z,33.81
2023-03-29T06:40:32.009Z,33.52
2023-03-29T06:42:59.451Z,33.01
2023-03-29T06:45:58.920Z,33.54
2023-03-29T06:48:34.991Z,33.18
2023-03-29T06:51:02.342Z,33.01
2023-03-29T06:53:30.789Z,32.93
2023-03-29T06:56:05.250Z,33.27
2023-03-29T06:58:42.229Z,33.41
2023-03-29T07:01:25.594Z,32.76
2023-03-29T07:04:04.873Z,31.95
2023-03-29T07:06:39.187Z,32.12
2023-03-29T07:09:06.948Z,31.89
2023-03-29T07:11:50.149Z,31.65
2023-03-29T07:14:25.944Z,31.86
2023-03-29T07:16:52.834Z,32.25
2023-03-29T07:19:30.249Z,31.58
2023-03-29T07:21:57.162Z,31.98
2023-03-29T07:24:35.113Z,31.53
2023-03-29T07:27:04.541Z,31.41
2023-03-29T07:29:32.734Z,30.33
2023-03-29T07:32:00.246Z,30.43
2023-03-29T07:34:42.205Z,30.96
2023-03-29T07:37:13.763Z,30.82
2023-03-29T07:39:43.170Z,30.49
2023-03-29T07:42:39.389Z,30.23
2023-03-29T07:45:09.217Z,30.27
2023-03-29T07:47:46.683Z,30.02
2023-03-29T07:50:14.533Z,30.21
2023-03-29T07:52:41.369Z,29.60
2023-03-29T07:55:09.963Z,29.56
2023-03-29T07:57:54.183Z,29.16
2023-03-29T08:00:22.429Z,29.38
2023-03-29T08:03:07.358Z,28.84
2023-03-29T08:05:41.334Z,29.09
2023-03-29T08:08:14.692Z,28.44
2023-03-29T08:11:01.810Z,28.19
2023-03-29T08:13:42.078Z,28.62
2023-03-29T08:16:21.038Z,27.64
2023-03-29T08:18:55.463Z,27.88
2023-03-29T08:21:26.508Z,27.32
2023-03-29T08:23:53.710Z,26.81
2023-03-29T08:26:34.822Z,27.36
2023-03-29T08:29:01.853Z,28.08
2023-03-29T08:31:28.580Z,27.68
2023-03-29T08:33:56.423Z,27.49
2023-03-29T08:36:40.420Z,27.49
2023-03-29T08:39:19.120Z,27.16
2023-03-29T08:41:52.857Z,28.04
2023-03-29T08:44:38.086Z,26.11
2023-03-29T08:47:21.930Z,25.96
2023-03-29T08:49:52.764Z,25.81
2023-03-29T08:52:35.661Z,25.38
2023-03-29T08:55:33.582Z,24.79
2023-03-29T08:58:21.124Z,24.54
2023-03-29T09:00:51.336Z,24.93
2023-03-29T09:03:22.383Z,24.88
2023-03-29T09:05:56.555Z,24.75
2023-03-29T09:08:25.816Z,24.50
2023-03-29T09:11:04.990Z,24.75
2023-03-29T09:13:34.491Z,24.18
2023-03-29T09:16:07.080Z,24.38
2023-03-29T09:18:56.614Z,24.38
2023-03-29T09:21:29.924Z,24.00
2023-03-29T09:23:57.756Z,23.95
2023-03-29T09:26:35.992Z,23.83
2023-03-29T09:29:26.198Z,23.39
2023-03-29T09:31:53.583Z,22.67
2023-03-29T09:34:36.110Z,22.72
2023-03-29T09:37:11.279Z,23.09
2023-03-29T09:39:45.182Z,22.72
2023-03-29T09:42:17.453Z,22.40
2023-03-29T09:44:44.211Z,21.90
2023-03-29T09:47:23.381Z,21.61
2023-03-29T09:49:52.289Z,21.01
2023-03-29T09:52:20.909Z,21.35
2023-03-29T09:55:01.110Z,21.39
2023-03-29T09:57:46.748Z,20.99
2023-03-29T10:00:15.765Z,21.43
2023-03-29T10:02:49.854Z,21.36
2023-03-29T10:05:18.243Z,21.25
2023-03-29T10:07:47.429Z,21.88
2023-03-29T10:10:20.896Z,21.04
2023-03-29T10:12:53.002Z,21.32
2023-03-29T10:15:29.202Z,20.50
2023-03-29T10:18:00.985Z,21.37
2023-03-29T10:20:28.181Z,21.20
2023-03-29T10:22:58.693Z,21.55
2023-03-29T10:25:27.195Z,20.88
2023-03-29T10:27:56.277Z,21.01
2023-03-29T10:30:24.508Z,21.24
2023-03-29T10:32:56.762Z,20.29
2023-03-29T10:35:33.388Z,20.35
2023-03-29T10:38:03.372Z,21.15
2023-03-29T10:40:34.035Z,21.48
2023-03-29T10:43:01.922Z,20.61
2023-03-29T10:45:31.192Z,20.80
2023-03-29T10:47:58.940Z,21.25
2023-03-29T10:50:32.655Z,20.80
2023-03-29T10:52:59.505Z,20.83
2023-03-29T10:55:31.561Z,20.43
2023-03-29T10:58:01.669Z,21.04
2023-03-29T11:00:38.397Z,20.64
2023-03-29T11:03:05.248Z,21.28
2023-03-29T11:05:39.465Z,20.26
2023-03-29T11:08:24.702Z,20.18
2023-03-29T11:11:18.460Z,20.64
2023-03-29T11:13:55.011Z,19.95
2023-03-29T11:16:27.666Z,20.17
2023-03-29T11:19:06.861Z,19.63
2023-03-29T11:21:40.643Z,19.95
2023-03-29T11:24:07.317Z,19.53
2023-03-29T11:26:33.915Z,19.81
2023-03-29T11:29:00.661Z,19.64
2023-03-29T11:32:00.067Z,19.69
2023-03-29T11:34:37.139Z,19.66
2023-03-29T11:37:14.505Z,19.32
2023-03-29T11:39:49.226Z,20.37
2023-03-29T11:42:20.306Z,20.28
2023-03-29T11:44:48.569Z,19.39
2023-03-29T11:47:18.753Z,19.50
2023-03-29T11:49:57.591Z,18.87
2023-03-29T11:52:29.034Z,18.55
2023-03-29T11:54:59.046Z,19.00
2023-03-29T11:57:29.149Z,19.65
2023-03-29T12:00:12.426Z,19.06
2023-03-29T12:02:42.096Z,18.32
2023-03-29T12:05:16.058Z,18.28
2023-03-29T12:07:47.391Z,18.68
2023-03-29T12:10:19.899Z,18.19
2023-03-29T12:12:59.571Z,17.60
2023-03-29T12:15:29.599Z,17.70
2023-03-29T12:18:02.317Z,17.50
2023-03-29T12:20:31.761Z,17.79
2023-03-29T12:23:01.253Z,17.98
2023-03-29T12:25:34.593Z,17.34
2023-03-29T12:28:23.203Z,17.51
2023-03-29T12:30:56.109Z,17.53
2023-03-29T12:33:48.902Z,17.52
2023-03-29T12:36:49.640Z,18.41
2023-03-29T12:39:36.860Z,18.41
2023-03-29T12:42:23.268Z,18.23
2023-03-29T12:45:38.968Z,18.03
2023-03-29T12:48:06.595Z,16.97
2023-03-29T12:50:34.783Z,17.35
2023-03-29T12:53:02.803Z,17.89
2023-03-29T12:55:41.603Z,17.59
2023-03-29T12:58:31.432Z,17.48
2023-03-29T13:01:08.792Z,18.44
2023-03-29T13:03:42.584Z,18.68
2023-03-29T13:06:10.833Z,17.78
2023-03-29T13:08:37.376Z,18.22
2023-03-29T13:11:05.194Z,17.82
2023-03-29T13:13:36.724Z,18.34
2023-03-29T13:16:16.946Z,17.75
2023-03-29T13:18:51.808Z,17.86
2023-03-29T13:21:50.979Z,18.40
2023-03-29T13:24:21.708Z,18.25
2023-03-29T13:26:49.193Z,18.64
2023-03-29T13:29:29.812Z,18.33
2023-03-29T13:32:04.778Z,18.75
2023-03-29T13:35:03.950Z,18.05
2023-03-29T13:37:40.170Z,17.94
2023-03-29T13:40:26.674Z,17.48
2023-03-29T13:43:00.409Z,18.46
2023-03-29T13:45:28.811Z,18.35
2023-03-29T13:48:05.529Z,17.94
2023-03-29T13:50:35.887Z,18.10
2023-03-29T13:53:08.324Z,17.57
2023-03-29T13:55:41.891Z,16.96
2023-03-29T13:58:13.583Z,17.04
2023-03-29T14:00:47.256Z,17.29
2023-03-29T14:03:15.589Z,17.01
2023-03-29T14:05:44.320Z,17.13
2023-03-29T14:08:16.850Z,16.49
2023-03-29T14:10:44.864Z,17.56
2023-03-29T14:13:15.344Z,16.95
2023-03-29T14:15:48.525Z,16.56
2023-03-29T14:18:17.016Z,16.88
2023-03-29T14:20:46.040Z,15.75
2023-03-29T14:23:16.290Z,15.81
2023-03-29T14:25:42.871Z,16.21
2023-03-29T14:28:19.491Z,17.05
2023-03-29T14:30:47.238Z,16.89
2023-03-29T14:33:14.520Z,16.58
2023-03-29T14:35:41.949Z,16.53
2023-03-29T14:38:12.544Z,16.18
2023-03-29T14:40:39.519Z,17.42
2023-03-29T14:43:08.054Z,17.77
2023-03-29T14:45:35.275Z,17.23
2023-03-29T14:48:02.149Z,16.77
2023-03-29T14:50:29.761Z,16.13
2023-03-29T14:52:57.748Z,16.21
2023-03-29T14:55:25.057Z,16.14
2023-03-29T14:57:54.214Z,16.16
2023-03-29T15:00:24.713Z,16.13
2023-03-29T15:02:56.756Z,16.11
2023-03-29T15:05:25.814Z,16.31
2023-03-29T15:07:56.013Z,17.17
2023-03-29T15:10:23.150Z,16.71
2023-03-29T15:12:50.371Z,17.37
2023-03-29T15:15:17.151Z,17.06
2023-03-29T15:17:51.841Z,17.18
2023-03-29T15:20:23.997Z,17.42
2023-03-29T15:23:03.523Z,18.02
2023-03-29T15:25:34.589Z,17.72
2023-03-29T15:28:01.873Z,18.34
2023-03-29T15:30:33.192Z,19.04
2023-03-29T15:33:13.555Z,18.64
2023-03-29T15:35:40.755Z,19.16
2023-03-29T15:38:10.526Z,18.52
2023-03-29T15:40:37.399Z,19.36
2023-03-29T15:43:04.200Z,19.61
2023-03-29T15:45:30.931Z,19.61
2023-03-29T15:47:57.491Z,19.26
2023-03-29T15:50:24.224Z,19.43
2023-03-29T15:52:50.870Z,19.86
2023-03-29T15:55:18.556Z,19.94
2023-03-29T15:57:47.950Z,20.20
2023-03-29T16:00:17.840Z,20.55
2023-03-29T16:02:44.693Z,20.67
2023-03-29T16:05:13.133Z,20.19
2023-03-29T16:07:40.019Z,20.44
2023-03-29T16:10:07.902Z,20.53
2023-03-29T16:12:37.016Z,20.27
2023-03-29T16:15:09.114Z,20.76
2023-03-29T16:17:36.248Z,20.48
2023-03-29T16:20:04.925Z,20.99
2023-03-29T16:22:32.340Z,21.04
2023-03-29T16:24:59.480Z,21.10
2023-03-29T16:27:26.176Z,21.23
2023-03-29T16:29:53.039Z,21.98
2023-03-29T16:32:19.769Z,21.42
2023-03-29T16:34:47.135Z,22.00
2023-03-29T16:37:13.875Z,21.53
2023-03-29T16:39:40.553Z,21.48
2023-03-29T16:42:07.431Z,21.72
2023-03-29T16:44:34.053Z,21.61
2023-03-29T16:47:00.905Z,21.43
2023-03-29T16:49:28.655Z,22.03
2023-03-29T16:51:56.110Z,22.35
2023-03-29T16:54:25.948Z,22.24
2023-03-29T16:56:52.724Z,22.17
2023-03-29T16:59:19.456Z,21.93
2023-03-29T17:01:46.441Z,22.37
2023-03-29T17:04:13.081Z,22.33
2023-03-29T17:06:39.759Z,22.69
2023-03-29T17:09:07.384Z,22.74
2023-03-29T17:11:34.676Z,22.50
2023-03-29T17:14:01.643Z,22.19
2023-03-29T17:16:29.221Z,23.10
2023-03-29T17:18:58.511Z,23.67
2023-03-29T17:21:25.465Z,22.77
2023-03-29T17:23:52.053Z,23.33
2023-03-29T17:26:18.768Z,23.06
2023-03-29T17:28:45.464Z,22.87
2023-03-29T17:31:12.160Z,22.86
2023-03-29T17:33:38.815Z,22.71
2023-03-29T17:36:06.065Z,23.35
2023-03-29T17:38:34.086Z,22.75
2023-03-29T17:41:02.724Z,22.42
2023-03-29T17:43:29.560Z,22.56
2023-03-29T17:45:56.364Z,23.60
2023-03-29T17:48:23.574Z,22.52
2023-03-29T17:50:50.700Z,22.79
2023-03-29T17:53:17.261Z,22.91
2023-03-29T17:55:43.827Z,22.75
2023-03-29T17:58:11.121Z,22.49
2023-03-29T18:00:38.044Z,22.95
2023-03-29T18:03:05.435Z,23.01
2023-03-29T18:05:31.971Z,23.36
2023-03-29T18:07:58.731Z,23.59
2023-03-29T18:10:25.562Z,23.35
2023-03-29T18:12:52.819Z,23.18
2023-03-29T18:15:20.217Z,23.00
2023-03-29T18:17:47.420Z,23.05
2023-03-29T18:20:14.247Z,22.69
2023-03-29T18:22:41.904Z,22.69
2023-03-29T18:25:09.598Z,22.65
2023-03-29T18:27:39.489Z,22.75
2023-03-29T18:30:06.726Z,22.89
2023-03-29T18:32:33.591Z,22.84
2023-03-29T18:35:02.333Z,23.35
2023-03-29T18:37:29.072Z,23.45
2023-03-29T18:39:58.875Z,23.84
2023-03-29T18:42:25.596Z,23.41
2023-03-29T18:44:52.284Z,23.45
2023-03-29T18:47:19.126Z,23.41
2023-03-29T18:49:45.798Z,23.98
2023-03-29T18:52:12.584Z,23.94
2023-03-29T18:54:39.292Z,23.40
2023-03-29T18:57:07.197Z,23.37
2023-03-29T18:59:36.631Z,23.02
2023-03-29T19:02:03.874Z,23.52
2023-03-29T19:04:30.767Z,23.08
2023-03-29T19:06:57.581Z,23.60
2023-03-29T19:09:24.209Z,23.53
2023-03-29T19:11:51.077Z,23.37
2023-03-29T19:14:23.406Z,23.73
2023-03-29T19:16:51.417Z,23.47
2023-03-29T19:19:18.772Z,23.74
2023-03-29T19:21:47.234Z,23.60
2023-03-29T19:24:15.564Z,23.68
2023-03-29T19:26:42.313Z,24.03
2023-03-29T19:29:09.272Z,23.63
2023-03-29T19:31:37.876Z,23.86
2023-03-29T19:34:05.263Z,24.15
2023-03-29T19:36:32.074Z,24.11
2023-03-29T19:38:59.426Z,24.22
2023-03-29T19:41:27.141Z,24.20
2023-03-29T19:43:53.881Z,24.46
2023-03-29T19:46:20.872Z,24.20
2023-03-29T19:48:47.475Z,24.23
2023-03-29T19:51:14.522Z,24.45
2023-03-29T19:53:41.907Z,24.37
2023-03-29T19:56:11.211Z,24.50
2023-03-29T19:58:39.047Z,24.86
2023-03-29T20:01:06.035Z,25.02
2023-03-29T20:03:34.429Z,24.43
2023-03-29T20:06:01.503Z,24.47
2023-03-29T20:08:29.855Z,24.71
2023-03-29T20:10:59.922Z,24.71
2023-03-29T20:13:37.545Z,24.85
2023-03-29T20:16:06.515Z,24.65
2023-03-29T20:18:33.259Z,24.77
2023-03-29T20:21:01.805Z,24.57
2023-03-29T20:23:28.822Z,25.02
2023-03-29T20:25:55.544Z,25.27
2023-03-29T20:28:23.642Z,25.77
2023-03-29T20:30:52.359Z,25.71
2023-03-29T20:33:19.491Z,26.25
2023-03-29T20:35:46.907Z,25.99
2023-03-29T20:38:14.108Z,25.82
2023-03-29T20:40:41.011Z,25.44
2023-03-29T20:43:13.736Z,25.60
2023-03-29T20:45:52.657Z,26.28
2023-03-29T20:48:23.275Z,26.35
2023-03-29T20:50:50.419Z,25.81
2023-03-29T20:53:18.256Z,25.86
2023-03-29T20:55:45.098Z,25.80
2023-03-29T20:58:11.879Z,26.33
2023-03-29T21:00:38.477Z,26.10
2023-03-29T21:03:05.490Z,26.16
2023-03-29T21:05:32.970Z,26.08
2023-03-29T21:08:00.009Z,26.25
2023-03-29T21:10:27.515Z,25.80
2023-03-29T21:12:54.622Z,25.75
2023-03-29T21:15:21.409Z,25.73
2023-03-29T21:17:48.221Z,26.06
2023-03-29T21:20:15.568Z,25.96
2023-03-29T21:22:43.150Z,26.34
2023-03-29T21:25:11.406Z,26.66
2023-03-29T21:27:38.549Z,26.23
2023-03-29T21:30:05.556Z,26.67
2023-03-29T21:32:32.526Z,25.64
2023-03-29T21:34:59.132Z,25.83
2023-03-29T21:37:26.060Z,25.29
2023-03-29T21:39:52.718Z,26.52
2023-03-29T21:42:19.257Z,25.83
2023-03-29T21:44:45.875Z,25.87
2023-03-29T21:47:12.547Z,25.89
2023-03-29T21:49:39.655Z,25.95
2023-03-29T21:52:07.144Z,25.96
2023-03-29T21:54:34.014Z,26.02
2023-03-29T21:57:00.906Z,25.78
2023-03-29T21:59:27.987Z,26.34
2023-03-29T22:01:54.694Z,26.12
2023-03-29T22:04:35.371Z,26.26
2023-03-29T22:07:03.725Z,25.78
2023-03-29T22:09:31.778Z,25.80
2023-03-29T22:11:59.930Z,26.04
2023-03-29T22:14:28.551Z,26.05
2023-03-29T22:16:55.346Z,26.13
2023-03-29T22:19:22.152Z,26.17
2023-03-29T22:21:48.925Z,25.62
2023-03-29T22:24:16.235Z,25.37
2023-03-29T22:26:44.977Z,26.19
2023-03-29T22:29:12.135Z,26.27
2023-03-29T22:31:39.556Z,26.07
2023-03-29T22:34:06.698Z,25.86
2023-03-29T22:36:33.524Z,26.12
2023-03-29T22:39:00.627Z,26.00
2023-03-29T22:41:28.272Z,26.79
2023-03-29T22:43:56.182Z,26.35
2023-03-29T22:46:23.181Z,26.13
2023-03-29T22:48:49.863Z,26.51
2023-03-29T22:51:17.446Z,26.63
2023-03-29T22:53:44.276Z,26.54
2023-03-29T22:56:10.849Z,26.49
2023-03-29T22:58:37.652Z,26.19
2023-03-29T23:01:05.223Z,26.27
2023-03-29T23:03:32.185Z,26.88
2023-03-29T23:06:02.347Z,26.48
2023-03-29T23:08:30.821Z,26.27
2023-03-29T23:10:57.933Z,26.62
2023-03-29T23:13:26.016Z,27.25
2023-03-29T23:15:54.555Z,27.67
2023-03-29T23:18:22.224Z,27.00
2023-03-29T23:20:50.914Z,27.09
2023-03-29T23:23:19.069Z,27.62
2023-03-29T23:25:46.615Z,27.64
2023-03-29T23:28:13.826Z,28.43
2023-03-29T23:30:40.929Z,28.58
2023-03-29T23:33:07.658Z,28.53
2023-03-29T23:35:34.423Z,29.04
2023-03-29T23:38:00.985Z,29.56
2023-03-29T23:40:27.944Z,29.33
2023-03-29T23:42:59.503Z,28.99
2023-03-29T23:45:29.516Z,29.20
2023-03-29T23:47:57.114Z,29.43
2023-03-29T23:50:23.834Z,30.68
2023-03-29T23:52:51.714Z,29.86
2023-03-29T23:55:18.569Z,30.19
2023-03-29T23:57:45.536Z,30.33
